• Join FlightAware (Why Join?)
  • Login
  • US Flag 
10:45AM EDT


 

Airport Tracker/Info


-or-


 

Live Flight TrackerFlight Track Log ✈ GJS3618 ✈ 06-May-2013 ✈ KDEN - KGRR

Flight Track Log - Related Links

Times and Time Zones

All times are in EDT time to prevent confusion due to time zone crossing. See the GJS3618 flight status page for this flight to view local times or setup timezone preferences in your user account.

Time Position Orientation Groundspeed Altitude Reporting Facility
EDT Latitude Longitude Course Direction KTS MPH feet Rate Location/Type
09:47PM 39.9333 -104.6333 66° East 222 255 8,400  Level Denver TRACON
09:48PM 39.9550 -104.5650 68° East 266 306 9,300 600 Climbing Denver Center
09:49PM 39.9500 -104.4500 93° East 289 333 9,700 240 Climbing Denver TRACON
09:50PM 39.9583 -104.3531 84° East 296 341 9,900 480 Climbing Denver Center
09:51PM 39.9669 -104.2203 85° East 353 406 10,700 1,620 Climbing Denver Center
09:52PM 40.0061 -103.7983 66° East  Level FlightAware Approximate
09:53PM 39.9972 -103.9275 82° East 399 459 15,000  Level Denver Center
09:54PM 40.0186 -103.7856 79° East 390 449 17,200 1,860 Climbing Denver Center
09:55PM 40.0347 -103.6858 78° East 376 433 18,900 1,920 Climbing Denver Center
09:56PM 40.0664 -103.4964 78° East 396 456 21,200 1,860 Climbing Denver Center
09:57PM 40.0911 -103.3475 78° East 412 474 22,800 1,500 Climbing Denver Center
09:58PM 40.1142 -103.1942 79° East 424 488 24,400 1,500 Climbing Denver Center
09:59PM 40.1386 -103.0389 78° East 432 497 26,000 1,500 Climbing Denver Center
10:00PM 40.1642 -102.8833 78° East 434 499 27,500 1,260 Climbing Denver Center
10:01PM 40.1878 -102.7231 79° East 444 511 28,700 1,080 Climbing Denver Center
10:02PM 40.2164 -102.5439 78° East 454 522 29,800 960 Climbing Denver Center
10:03PM 40.2414 -102.3856 78° East 462 532 30,800 960 Climbing Denver Center
10:05PM 40.2692 -102.1656 79° East  Level FlightAware Approximate
10:05PM 40.2933 -102.0378 79° East 471 542 32,900  Level Denver Center
10:07PM 40.3189 -101.8275 79° East  Level FlightAware Approximate
10:07PM 40.3456 -101.6831 79° East 481 554 34,300  Level Denver Center
10:08PM 40.3733 -101.4881 79° East 487 560 34,800 480 Climbing Denver Center
10:10PM 40.3937 -101.2904 74° East  Level FlightAware Approximate
10:10PM 40.4389 -101.1547 74° East 496 571 35,800  Level Denver Center
10:11PM 40.4786 -100.9631 75° East 490 564 36,400 480 Climbing Denver Center
10:12PM 40.5125 -100.7989 75° East 491 565 36,800 240 Climbing Denver Center
10:14PM 40.5497 -100.6083 76° East 487 560 37,000 60 Climbing Denver Center
10:15PM 40.5947 -100.3844 75° East 500 575 37,000  Level Denver Center
10:16PM 40.6281 -100.2136 76° East 505 581 37,000  Level Denver Center
10:17PM 40.6669 -100.0144 76° East 505 581 37,000  Level Denver Center
10:18PM 40.7036 -99.8267 75° East 509 586 37,000  Level Denver Center
10:19PM 40.7386 -99.6464 76° East 508 585 37,000  Level Denver Center
10:20PM 40.7722 -99.4686 76° East 503 579 37,000  Level Denver Center
10:21PM 40.8058 -99.2886 76° East 507 583 37,000  Level Denver Center
10:22PM 40.8422 -99.0975 76° East 505 581 37,000  Level Denver Center
10:22PM 40.8539 -99.0331 77° East 505 581 37,000  Level Minneapolis Center
10:23PM 40.8858 -98.8536 77° East 504 580 37,000  Level Minneapolis Center
10:24PM 40.9194 -98.6722 76° East 507 583 37,000  Level Minneapolis Center
10:25PM 40.9522 -98.4917 76° East 506 582 37,000  Level Minneapolis Center
10:26PM 40.9889 -98.2906 76° East 505 581 37,000  Level Minneapolis Center
10:27PM 41.0244 -98.1119 75° East 505 581 37,000  Level Minneapolis Center
10:28PM 41.0603 -97.9333 75° East 505 581 37,000  Level Minneapolis Center
10:29PM 41.0956 -97.7531 75° East 506 582 37,000  Level Minneapolis Center
10:30PM 41.1306 -97.5725 76° East 506 582 37,000  Level Minneapolis Center
10:31PM 41.1686 -97.3756 76° East 506 582 37,000  Level Minneapolis Center
10:32PM 41.2039 -97.1961 75° East 504 580 37,000  Level Minneapolis Center
10:33PM 41.2381 -97.0147 76° East 505 581 37,000  Level Minneapolis Center
10:34PM 41.2722 -96.8333 76° East 506 582 37,000  Level Minneapolis Center
10:35PM 41.3058 -96.6531 76° East 505 581 37,000  Level Minneapolis Center
10:36PM 41.3397 -96.4717 76° East 503 579 37,000  Level Minneapolis Center
10:37PM 41.3753 -96.2714 77° East 505 581 37,000  Level Minneapolis Center
10:38PM 41.4086 -96.0911 76° East 503 579 37,000  Level Minneapolis Center
10:39PM 41.4406 -95.9119 77° East 500 575 37,000  Level Minneapolis Center
10:40PM 41.4722 -95.7328 77° East 496 571 37,000  Level Minneapolis Center
10:41PM 41.5025 -95.5569 77° East 496 571 37,000  Level Minneapolis Center
10:42PM 41.5333 -95.3803 77° East 491 565 37,000  Level Minneapolis Center
10:44PM 41.5647 -95.2011 77° East 494 568 37,000  Level Minneapolis Center
10:45PM 41.5939 -95.0258 77° East 487 560 37,000  Level Minneapolis Center
10:46PM 41.6236 -94.8508 77° East 484 557 37,000  Level Minneapolis Center
10:47PM 41.6522 -94.6758 78° East 482 555 37,000  Level Minneapolis Center
10:48PM 41.6819 -94.5019 77° East 482 555 37,000  Level Minneapolis Center
10:49PM 41.7158 -94.2931 78° East 481 554 37,000  Level Minneapolis Center
10:50PM 41.7442 -94.1192 78° East 478 550 37,000  Level Minneapolis Center
10:51PM 41.7719 -93.9450 78° East 478 550 37,000  Level Minneapolis Center
10:52PM 41.8008 -93.7636 78° East 478 550 37,000  Level Minneapolis Center
10:53PM 41.8275 -93.5872 78° East 483 556 37,000  Level Minneapolis Center
10:54PM 41.8553 -93.4108 78° East 486 559 37,000  Level Minneapolis Center
10:55PM 41.8828 -93.2339 78° East 486 559 37,000  Level Minneapolis Center
10:56PM 41.9147 -93.0239 78° East 485 558 37,000  Level Minneapolis Center
10:57PM 41.9408 -92.8522 78° East 481 554 37,000  Level Minneapolis Center
10:58PM 41.9650 -92.6853 79° East 472 543 37,000  Level Minneapolis Center
10:59PM 41.9850 -92.5489 79° East 467 537 37,000  Level Chicago Center
11:00PM 42.0097 -92.3800 79° East 467 537 37,000  Level Chicago Center
11:01PM 42.0342 -92.2078 79° East 471 542 37,000  Level Chicago Center
11:02PM 42.0586 -92.0350 79° East 476 548 37,000  Level Chicago Center
11:03PM 42.0831 -91.8664 79° East 469 540 37,000  Level Chicago Center
11:04PM 42.1117 -91.6597 79° East 474 545 37,000  Level Chicago Center
11:05PM 42.1347 -91.4939 79° East 463 533 37,000  Level Chicago Center
11:06PM 42.1567 -91.3297 80° East 456 525 37,000  Level Chicago Center
11:07PM 42.1778 -91.1664 80° East 452 520 37,000  Level Chicago Center
11:08PM 42.2006 -90.9997 79° East 458 527 37,000  Level Chicago Center
11:09PM 42.2219 -90.8344 80° East 455 524 37,000  Level Chicago Center
11:10PM 42.2433 -90.6661 80° East 460 529 37,000  Level Chicago Center
11:11PM 42.2686 -90.4636 80° East 463 533 37,000  Level Chicago Center
11:12PM 42.2911 -90.2939 80° East 465 535 37,000  Level Chicago Center
11:13PM 42.3117 -90.1231 81° East 463 533 37,000  Level Chicago Center
11:14PM 42.3314 -89.9575 81° East 460 529 37,000  Level Chicago Center
11:15PM 42.3528 -89.7850 80° East 455 524 37,000  Level Chicago Center
11:16PM 42.3733 -89.6156 81° East 456 525 37,000  Level Chicago Center
11:17PM 42.3939 -89.4464 81° East 457 526 37,000  Level Chicago Center
11:18PM 42.4125 -89.2803 81° East 451 519 37,000  Level Chicago Center
11:19PM 42.4319 -89.1108 81° East 455 524 37,000  Level Chicago Center
11:20PM 42.4511 -88.9431 81° East 453 521 37,000  Level Chicago Center
11:21PM 42.4736 -88.7475 81° East 453 521 37,000  Level Chicago Center
11:22PM 42.4917 -88.5817 82° East 448 516 37,000  Level Chicago Center
11:23PM 42.5097 -88.4161 82° East 445 512 37,000  Level Chicago Center
11:24PM 42.5269 -88.2494 82° East 448 516 37,000 -300 Level Chicago Center
11:25PM 42.5444 -88.0847 82° East 445 512 36,400 -1,080 Descending Chicago Center
11:26PM 42.5622 -87.9181 82° East 448 516 34,900 -1,500 Descending Chicago Center
11:27PM 42.5797 -87.7508 82° East 450 518 33,400 -1,740 Descending Chicago Center
11:28PM 42.5964 -87.5808 82° East 455 524 31,400 -2,040 Descending Chicago Center
11:29PM 42.6144 -87.4081 82° East 463 533 29,300 -2,220 Descending Chicago Center
11:30PM 42.6328 -87.2169 83° East 452 520 26,900 -2,220 Descending Chicago Center
11:31PM 42.6478 -87.0531 83° East 441 507 24,800 -2,340 Descending Chicago Center
11:32PM 42.6644 -86.8883 82° East 443 510 22,200 -2,820 Descending Chicago Center
11:33PM 42.6803 -86.7222 83° East 444 511 19,100 -3,000 Descending Chicago Center
11:34PM 42.6950 -86.5642 83° East 428 493 16,100 -3,000 Descending Chicago Center
11:35PM 42.7078 -86.4133 83° East 409 471 13,000 -2,760 Descending Chicago Center
11:36PM 42.7253 -86.2800 80° East 360 414 10,600 -1,920 Descending Chicago Center
11:37PM 42.7475 -86.1772 74° East 290 334 9,200 -1,920 Descending Chicago Center
11:38PM 42.7664 -86.0847 74° East 261 300 6,700 -2,040 Descending Chicago Center
11:39PM 42.7875 -85.9906 73° East 263 303 5,100 -1,440 Descending Chicago Center
11:40PM 42.8211 -85.8958 64° Northeast 238 274 3,800 -960 Descending Chicago Center
11:41PM 42.8447 -85.8214 67° East 222 255 3,200 -420 Descending Chicago Center
11:42PM 42.8531 -85.7458 81° East 208 239 3,000 -300 Descending Chicago Center
11:43PM 42.8619 -85.6711 81° East 203 234 2,700 -600 Descending Chicago Center
11:44PM 42.8694 -85.6067 81° East 190 219 1,900 -840 Descending Chicago Center
11:45PM 42.8750 -85.5550 82° East 161 185 1,100 -600 Descending Chicago Center
11:46PM 42.8803 -85.5061 82° East 154 177 800 -300 Descending Chicago Center
11:48PM 42.8667 -85.5167 90° East  Level FlightAware Approximate